Pillar Point, New York
Current Conditions -  °F | °C
As of 9:56 PM on Friday 19 Dec 2014 (Local Time) from KART Reporting Station
Clear Clear  
Wind Chill: 18°   Ceiling: Unl
Heat Index: 18°   Visibility: 10mi
Dew Point: 12°   Wind: 3mph
Humidity: 78%   Direction: 70°ENE
Pressure: 30.25"   Gusts: NA
Location:  44.0116°N, 76.0789°W
Report Text: KART 200256Z AUTO 07003KT 10SM CLR M08/M11 A3025 RMK AO2 SLP252 I3000 T10781111 50006
Loading
Personal Weather Stations






























Interactive Weather Map New forecast layout! Learn more

10-Day Weather Forecast

Advertisements
Track Severe Weather on mobile